MMSD/SJD METAR and TAF weather

Enter ICAO airport designator
Station Type Date Time Source
MMSD METAR 2019/02/16 02:44 UTC NOAA

MMSD 160244Z 28003KT 12SM SKC 23/11 A2998 RMK SLP129 52007 971


Station Type Date Time Source
MMSD Decoded METAR 2019/02/16 02:44 UTC NOAA

San Jose Del Cabo , Mexico (MMSD) 23-09N 109-42W
Feb 15, 2019 - 09:44 PM EST / 2019.02.16 0244 UTC
Wind: from the W (280 degrees) at 3 MPH (3 KT):0
Visibility: 12 mile(s):0
Sky conditions: clear
Temperature: 73 F (23 C)
Dew Point: 51 F (11 C)
Relative Humidity: 46%
Pressure (altimeter): 29.98 in. Hg (1015 hPa)
Pressure tendency: 0.02 inches (0.7 hPa) higher than three hours ago
ob: MMSD 160244Z 28003KT 12SM SKC 23/11 A2998 RMK SLP129 52007 971
cycle: 2

Station Type Date Time Source
MMSD TAF 2019/02/15 18:52 UTC NOAA

TAF MMSD 151645Z 1518/1618 14012KT P6SM SKC
FM160300 34010KT P6SM SKC


Example: see airport list